Fieldale, Virginia
Current Conditions -  °F | °C
As of 5:35 PM on Monday 24 Nov 2014 (Local Time) from KMTV Reporting Station
Clear Clear  
Wind Chill: 61°   Ceiling: Unl
Heat Index: 61°   Visibility: 10mi
Dew Point: 54°   Wind: 0mph
Humidity: 78%   Direction: NA
Pressure: 29.79"   Gusts: NA
Location:  36.7°N, 79.94°W
Report Text: KMTV 242235Z AUTO 00000KT 10SM CLR 16/12 A2979 RMK AO2 LTG DSNT S T01600122
Loading
Personal Weather Stations






























Interactive Weather Map New forecast layout! Learn more

10-Day Weather Forecast

Advertisements
Track Severe Weather on mobile